sensor_id;sensor_type;location;lat;lon;timestamp;P1;durP1;ratioP1;P2;durP2;ratioP2
15002;SDS011;7597;53.590;10.020;2022-08-21T00:01:29;11.40;;;4.95;;
15002;SDS011;7597;53.590;10.020;2022-08-21T00:03:56;11.57;;;5.10;;
15002;SDS011;7597;53.590;10.020;2022-08-21T00:06:23;7.07;;;4.62;;
15002;SDS011;7597;53.590;10.020;2022-08-21T00:08:50;7.65;;;4.45;;
15002;SDS011;7597;53.590;10.020;2022-08-21T00:11:16;11.77;;;6.25;;
15002;SDS011;7597;53.590;10.020;2022-08-21T00:13:43;10.85;;;5.82;;
15002;SDS011;7597;53.590;10.020;2022-08-21T00:16:09;11.27;;;5.70;;
15002;SDS011;7597;53.590;10.020;2022-08-21T00:18:36;10.07;;;6.40;;
15002;SDS011;7597;53.590;10.020;2022-08-21T00:21:03;16.02;;;8.30;;
15002;SDS011;7597;53.590;10.020;2022-08-21T00:23:29;14.70;;;9.13;;
15002;SDS011;7597;53.590;10.020;2022-08-21T00:25:56;10.93;;;8.50;;
15002;SDS011;7597;53.590;10.020;2022-08-21T00:28:23;14.82;;;9.48;;
15002;SDS011;7597;53.590;10.020;2022-08-21T00:30:49;14.10;;;7.87;;
15002;SDS011;7597;53.590;10.020;2022-08-21T00:33:16;10.73;;;9.10;;
15002;SDS011;7597;53.590;10.020;2022-08-21T00:35:43;10.82;;;8.57;;
15002;SDS011;7597;53.590;10.020;2022-08-21T00:38:09;14.68;;;9.25;;
15002;SDS011;7597;53.590;10.020;2022-08-21T00:40:38;13.32;;;9.27;;
15002;SDS011;7597;53.590;10.020;2022-08-21T00:43:04;14.10;;;9.85;;
15002;SDS011;7597;53.590;10.020;2022-08-21T00:45:30;14.82;;;8.73;;
15002;SDS011;7597;53.590;10.020;2022-08-21T00:47:57;12.90;;;8.88;;
15002;SDS011;7597;53.590;10.020;2022-08-21T00:50:26;14.10;;;10.50;;
15002;SDS011;7597;53.590;10.020;2022-08-21T00:52:50;13.18;;;9.93;;
15002;SDS011;7597;53.590;10.020;2022-08-21T00:55:17;11.93;;;8.98;;
15002;SDS011;7597;53.590;10.020;2022-08-21T00:57:45;10.88;;;9.38;;
15002;SDS011;7597;53.590;10.020;2022-08-21T01:00:12;11.77;;;8.95;;
15002;SDS011;7597;53.590;10.020;2022-08-21T01:02:38;14.45;;;10.40;;
15002;SDS011;7597;53.590;10.020;2022-08-21T01:05:05;15.18;;;9.88;;
15002;SDS011;7597;53.590;10.020;2022-08-21T01:07:32;10.20;;;8.73;;
15002;SDS011;7597;53.590;10.020;2022-08-21T01:09:58;12.15;;;8.55;;
15002;SDS011;7597;53.590;10.020;2022-08-21T01:12:25;10.90;;;7.97;;
15002;SDS011;7597;53.590;10.020;2022-08-21T01:14:52;10.75;;;8.10;;
15002;SDS011;7597;53.590;10.020;2022-08-21T01:17:19;11.73;;;8.85;;
15002;SDS011;7597;53.590;10.020;2022-08-21T01:19:45;13.62;;;8.45;;
15002;SDS011;7597;53.590;10.020;2022-08-21T01:22:12;11.45;;;8.43;;
15002;SDS011;7597;53.590;10.020;2022-08-21T01:24:38;12.13;;;8.90;;
15002;SDS011;7597;53.590;10.020;2022-08-21T01:27:05;10.75;;;8.57;;
15002;SDS011;7597;53.590;10.020;2022-08-21T01:29:34;13.88;;;8.57;;
15002;SDS011;7597;53.590;10.020;2022-08-21T01:32:04;11.98;;;8.27;;
15002;SDS011;7597;53.590;10.020;2022-08-21T01:34:27;8.65;;;7.75;;
15002;SDS011;7597;53.590;10.020;2022-08-21T01:36:53;11.82;;;8.20;;
15002;SDS011;7597;53.590;10.020;2022-08-21T01:39:20;12.35;;;7.90;;
15002;SDS011;7597;53.590;10.020;2022-08-21T01:41:47;13.00;;;7.72;;
15002;SDS011;7597;53.590;10.020;2022-08-21T01:44:13;12.52;;;7.97;;
15002;SDS011;7597;53.590;10.020;2022-08-21T01:46:40;9.95;;;7.47;;
15002;SDS011;7597;53.590;10.020;2022-08-21T01:49:07;8.77;;;7.40;;
15002;SDS011;7597;53.590;10.020;2022-08-21T01:51:33;10.75;;;7.60;;
15002;SDS011;7597;53.590;10.020;2022-08-21T01:54:00;11.40;;;8.23;;
15002;SDS011;7597;53.590;10.020;2022-08-21T01:56:28;9.38;;;8.18;;
15002;SDS011;7597;53.590;10.020;2022-08-21T01:58:55;11.00;;;8.30;;
15002;SDS011;7597;53.590;10.020;2022-08-21T02:01:21;9.65;;;7.65;;
15002;SDS011;7597;53.590;10.020;2022-08-21T02:03:48;8.43;;;7.62;;
15002;SDS011;7597;53.590;10.020;2022-08-21T02:06:15;8.18;;;7.47;;
15002;SDS011;7597;53.590;10.020;2022-08-21T02:08:41;11.80;;;7.87;;
15002;SDS011;7597;53.590;10.020;2022-08-21T02:11:08;9.27;;;7.18;;
15002;SDS011;7597;53.590;10.020;2022-08-21T02:13:34;10.55;;;7.43;;
15002;SDS011;7597;53.590;10.020;2022-08-21T02:16:01;9.13;;;7.45;;
15002;SDS011;7597;53.590;10.020;2022-08-21T02:18:28;9.52;;;6.90;;
15002;SDS011;7597;53.590;10.020;2022-08-21T02:20:55;10.60;;;7.15;;
15002;SDS011;7597;53.590;10.020;2022-08-21T02:23:23;11.63;;;7.93;;
15002;SDS011;7597;53.590;10.020;2022-08-21T02:25:49;13.50;;;8.70;;
15002;SDS011;7597;53.590;10.020;2022-08-21T02:28:15;14.85;;;10.18;;
15002;SDS011;7597;53.590;10.020;2022-08-21T02:30:43;11.38;;;9.50;;
15002;SDS011;7597;53.590;10.020;2022-08-21T02:33:09;14.25;;;10.00;;
15002;SDS011;7597;53.590;10.020;2022-08-21T02:35:35;10.48;;;9.18;;
15002;SDS011;7597;53.590;10.020;2022-08-21T02:38:04;12.15;;;9.93;;
15002;SDS011;7597;53.590;10.020;2022-08-21T02:40:30;13.43;;;10.20;;
15002;SDS011;7597;53.590;10.020;2022-08-21T02:42:56;14.73;;;9.55;;
15002;SDS011;7597;53.590;10.020;2022-08-21T02:45:23;17.33;;;10.05;;
15002;SDS011;7597;53.590;10.020;2022-08-21T02:47:51;13.15;;;9.30;;
15002;SDS011;7597;53.590;10.020;2022-08-21T02:50:19;13.68;;;9.73;;
15002;SDS011;7597;53.590;10.020;2022-08-21T02:52:44;11.98;;;8.95;;
15002;SDS011;7597;53.590;10.020;2022-08-21T02:55:11;10.82;;;8.63;;
15002;SDS011;7597;53.590;10.020;2022-08-21T02:57:37;10.85;;;9.18;;
15002;SDS011;7597;53.590;10.020;2022-08-21T03:00:04;9.57;;;8.05;;
15002;SDS011;7597;53.590;10.020;2022-08-21T03:02:32;10.18;;;8.00;;
15002;SDS011;7597;53.590;10.020;2022-08-21T03:04:59;8.85;;;7.22;;
15002;SDS011;7597;53.590;10.020;2022-08-21T03:07:25;8.30;;;7.40;;
15002;SDS011;7597;53.590;10.020;2022-08-21T03:09:52;11.88;;;7.75;;
15002;SDS011;7597;53.590;10.020;2022-08-21T03:12:19;9.38;;;8.02;;
15002;SDS011;7597;53.590;10.020;2022-08-21T03:14:45;14.10;;;8.55;;
15002;SDS011;7597;53.590;10.020;2022-08-21T03:17:12;9.43;;;7.87;;
15002;SDS011;7597;53.590;10.020;2022-08-21T03:19:39;12.18;;;8.63;;
15002;SDS011;7597;53.590;10.020;2022-08-21T03:22:05;10.82;;;8.55;;
15002;SDS011;7597;53.590;10.020;2022-08-21T03:24:32;11.15;;;8.65;;
15002;SDS011;7597;53.590;10.020;2022-08-21T03:26:59;14.38;;;10.02;;
15002;SDS011;7597;53.590;10.020;2022-08-21T03:29:25;12.98;;;9.25;;
15002;SDS011;7597;53.590;10.020;2022-08-21T03:31:52;14.18;;;9.73;;
15002;SDS011;7597;53.590;10.020;2022-08-21T03:34:19;12.65;;;8.75;;
15002;SDS011;7597;53.590;10.020;2022-08-21T03:36:45;17.25;;;9.63;;
15002;SDS011;7597;53.590;10.020;2022-08-21T03:39:12;11.35;;;9.00;;
15002;SDS011;7597;53.590;10.020;2022-08-21T03:41:38;12.40;;;9.73;;
15002;SDS011;7597;53.590;10.020;2022-08-21T03:44:05;13.57;;;9.43;;
15002;SDS011;7597;53.590;10.020;2022-08-21T03:46:32;11.68;;;8.85;;
15002;SDS011;7597;53.590;10.020;2022-08-21T03:48:58;14.30;;;9.73;;
15002;SDS011;7597;53.590;10.020;2022-08-21T03:51:25;9.63;;;8.65;;
15002;SDS011;7597;53.590;10.020;2022-08-21T03:53:52;12.00;;;9.20;;
15002;SDS011;7597;53.590;10.020;2022-08-21T03:56:18;13.18;;;8.38;;
15002;SDS011;7597;53.590;10.020;2022-08-21T03:58:45;13.73;;;9.18;;
15002;SDS011;7597;53.590;10.020;2022-08-21T04:01:12;13.43;;;9.13;;
15002;SDS011;7597;53.590;10.020;2022-08-21T04:03:38;11.40;;;8.65;;
15002;SDS011;7597;53.590;10.020;2022-08-21T04:06:05;9.60;;;8.52;;
15002;SDS011;7597;53.590;10.020;2022-08-21T04:08:32;11.60;;;8.80;;
15002;SDS011;7597;53.590;10.020;2022-08-21T04:10:59;10.88;;;9.52;;
15002;SDS011;7597;53.590;10.020;2022-08-21T04:13:26;14.65;;;9.55;;
15002;SDS011;7597;53.590;10.020;2022-08-21T04:15:54;10.85;;;9.48;;
15002;SDS011;7597;53.590;10.020;2022-08-21T04:18:20;13.15;;;8.75;;
15002;SDS011;7597;53.590;10.020;2022-08-21T04:20:48;12.93;;;9.25;;
15002;SDS011;7597;53.590;10.020;2022-08-21T04:23:13;13.02;;;10.48;;
15002;SDS011;7597;53.590;10.020;2022-08-21T04:25:40;14.30;;;10.23;;
15002;SDS011;7597;53.590;10.020;2022-08-21T04:28:07;13.25;;;9.57;;
15002;SDS011;7597;53.590;10.020;2022-08-21T04:30:34;11.45;;;9.18;;
15002;SDS011;7597;53.590;10.020;2022-08-21T04:33:01;11.95;;;8.85;;
15002;SDS011;7597;53.590;10.020;2022-08-21T04:35:27;13.93;;;9.95;;
15002;SDS011;7597;53.590;10.020;2022-08-21T04:37:55;14.63;;;9.60;;
15002;SDS011;7597;53.590;10.020;2022-08-21T04:40:22;11.18;;;9.85;;
15002;SDS011;7597;53.590;10.020;2022-08-21T04:42:49;12.50;;;9.50;;
15002;SDS011;7597;53.590;10.020;2022-08-21T04:45:19;13.68;;;9.80;;
15002;SDS011;7597;53.590;10.020;2022-08-21T04:47:45;11.15;;;9.88;;
15002;SDS011;7597;53.590;10.020;2022-08-21T04:50:11;13.15;;;9.93;;
15002;SDS011;7597;53.590;10.020;2022-08-21T04:52:38;11.70;;;10.50;;
15002;SDS011;7597;53.590;10.020;2022-08-21T04:55:05;16.15;;;10.43;;
15002;SDS011;7597;53.590;10.020;2022-08-21T04:57:32;10.23;;;8.75;;
15002;SDS011;7597;53.590;10.020;2022-08-21T04:59:58;11.70;;;8.50;;
15002;SDS011;7597;53.590;10.020;2022-08-21T05:02:26;13.88;;;8.95;;
15002;SDS011;7597;53.590;10.020;2022-08-21T05:04:52;10.65;;;8.38;;
15002;SDS011;7597;53.590;10.020;2022-08-21T05:07:20;10.88;;;7.70;;
15002;SDS011;7597;53.590;10.020;2022-08-21T05:09:47;10.95;;;8.00;;
15002;SDS011;7597;53.590;10.020;2022-08-21T05:12:13;13.02;;;7.72;;
15002;SDS011;7597;53.590;10.020;2022-08-21T05:14:40;9.85;;;7.18;;
15002;SDS011;7597;53.590;10.020;2022-08-21T05:17:08;10.13;;;7.03;;
15002;SDS011;7597;53.590;10.020;2022-08-21T05:19:34;9.05;;;6.78;;
15002;SDS011;7597;53.590;10.020;2022-08-21T05:22:00;7.80;;;6.60;;
15002;SDS011;7597;53.590;10.020;2022-08-21T05:24:27;9.65;;;6.32;;
15002;SDS011;7597;53.590;10.020;2022-08-21T05:26:54;9.07;;;6.37;;
15002;SDS011;7597;53.590;10.020;2022-08-21T05:29:20;6.50;;;5.80;;
15002;SDS011;7597;53.590;10.020;2022-08-21T05:31:47;6.85;;;5.40;;
15002;SDS011;7597;53.590;10.020;2022-08-21T05:34:15;8.00;;;5.68;;
15002;SDS011;7597;53.590;10.020;2022-08-21T05:36:40;6.50;;;5.15;;
15002;SDS011;7597;53.590;10.020;2022-08-21T05:39:07;8.82;;;5.93;;
15002;SDS011;7597;53.590;10.020;2022-08-21T05:41:34;5.43;;;4.60;;
15002;SDS011;7597;53.590;10.020;2022-08-21T05:44:01;7.30;;;4.87;;
15002;SDS011;7597;53.590;10.020;2022-08-21T05:46:28;7.82;;;4.68;;
15002;SDS011;7597;53.590;10.020;2022-08-21T05:48:54;6.90;;;4.55;;
15002;SDS011;7597;53.590;10.020;2022-08-21T05:51:21;7.62;;;4.30;;
15002;SDS011;7597;53.590;10.020;2022-08-21T05:53:48;5.28;;;4.10;;
15002;SDS011;7597;53.590;10.020;2022-08-21T05:56:14;5.80;;;4.07;;
15002;SDS011;7597;53.590;10.020;2022-08-21T05:58:41;7.95;;;4.20;;
15002;SDS011;7597;53.590;10.020;2022-08-21T06:01:08;5.85;;;4.00;;
15002;SDS011;7597;53.590;10.020;2022-08-21T06:03:36;5.28;;;4.20;;
15002;SDS011;7597;53.590;10.020;2022-08-21T06:06:01;5.47;;;3.83;;
15002;SDS011;7597;53.590;10.020;2022-08-21T06:08:28;4.45;;;4.00;;
15002;SDS011;7597;53.590;10.020;2022-08-21T06:10:55;6.28;;;3.90;;
15002;SDS011;7597;53.590;10.020;2022-08-21T06:13:21;3.83;;;3.35;;
15002;SDS011;7597;53.590;10.020;2022-08-21T06:15:47;5.10;;;3.33;;
15002;SDS011;7597;53.590;10.020;2022-08-21T06:18:14;5.85;;;3.47;;
15002;SDS011;7597;53.590;10.020;2022-08-21T06:20:41;4.43;;;3.05;;
15002;SDS011;7597;53.590;10.020;2022-08-21T06:23:07;6.50;;;3.25;;
15002;SDS011;7597;53.590;10.020;2022-08-21T06:25:34;3.70;;;3.03;;
15002;SDS011;7597;53.590;10.020;2022-08-21T06:28:08;8.00;;;3.80;;
15002;SDS011;7597;53.590;10.020;2022-08-21T06:30:36;4.87;;;3.08;;
15002;SDS011;7597;53.590;10.020;2022-08-21T06:33:02;5.78;;;3.17;;
15002;SDS011;7597;53.590;10.020;2022-08-21T06:35:29;5.12;;;2.97;;
15002;SDS011;7597;53.590;10.020;2022-08-21T06:37:56;4.80;;;2.90;;
15002;SDS011;7597;53.590;10.020;2022-08-21T06:40:22;9.68;;;6.60;;
15002;SDS011;7597;53.590;10.020;2022-08-21T06:42:49;5.30;;;2.90;;
15002;SDS011;7597;53.590;10.020;2022-08-21T06:45:15;4.05;;;3.03;;
15002;SDS011;7597;53.590;10.020;2022-08-21T06:47:42;4.37;;;2.90;;
15002;SDS011;7597;53.590;10.020;2022-08-21T06:50:09;3.97;;;2.78;;
15002;SDS011;7597;53.590;10.020;2022-08-21T06:52:36;3.70;;;2.50;;
15002;SDS011;7597;53.590;10.020;2022-08-21T06:55:02;3.22;;;2.70;;
15002;SDS011;7597;53.590;10.020;2022-08-21T06:57:29;4.15;;;2.58;;
15002;SDS011;7597;53.590;10.020;2022-08-21T06:59:56;5.25;;;2.83;;
15002;SDS011;7597;53.590;10.020;2022-08-21T07:02:23;4.25;;;2.70;;
15002;SDS011;7597;53.590;10.020;2022-08-21T07:04:49;3.72;;;2.90;;
15002;SDS011;7597;53.590;10.020;2022-08-21T07:07:16;9.25;;;7.40;;
15002;SDS011;7597;53.590;10.020;2022-08-21T07:09:42;5.40;;;2.80;;
15002;SDS011;7597;53.590;10.020;2022-08-21T07:12:10;3.83;;;2.17;;
15002;SDS011;7597;53.590;10.020;2022-08-21T07:14:36;6.82;;;4.60;;
15002;SDS011;7597;53.590;10.020;2022-08-21T07:17:03;5.53;;;2.78;;
15002;SDS011;7597;53.590;10.020;2022-08-21T07:19:30;3.50;;;2.58;;
15002;SDS011;7597;53.590;10.020;2022-08-21T07:21:57;3.80;;;2.80;;
15002;SDS011;7597;53.590;10.020;2022-08-21T07:24:23;5.25;;;2.53;;
15002;SDS011;7597;53.590;10.020;2022-08-21T07:26:50;5.75;;;2.70;;
15002;SDS011;7597;53.590;10.020;2022-08-21T07:29:16;7.07;;;2.92;;
15002;SDS011;7597;53.590;10.020;2022-08-21T07:31:43;3.97;;;2.42;;
15002;SDS011;7597;53.590;10.020;2022-08-21T07:34:10;3.87;;;2.45;;
15002;SDS011;7597;53.590;10.020;2022-08-21T07:36:36;4.05;;;3.10;;
15002;SDS011;7597;53.590;10.020;2022-08-21T07:39:03;5.57;;;2.60;;
15002;SDS011;7597;53.590;10.020;2022-08-21T07:41:30;26.75;;;19.92;;
15002;SDS011;7597;53.590;10.020;2022-08-21T07:43:56;5.78;;;2.90;;
15002;SDS011;7597;53.590;10.020;2022-08-21T07:46:24;4.37;;;2.55;;
15002;SDS011;7597;53.590;10.020;2022-08-21T07:48:50;6.43;;;2.53;;
15002;SDS011;7597;53.590;10.020;2022-08-21T07:51:17;3.80;;;2.47;;
15002;SDS011;7597;53.590;10.020;2022-08-21T07:53:47;3.95;;;2.50;;
15002;SDS011;7597;53.590;10.020;2022-08-21T07:56:13;5.70;;;2.67;;
15002;SDS011;7597;53.590;10.020;2022-08-21T07:58:40;4.30;;;2.60;;
15002;SDS011;7597;53.590;10.020;2022-08-21T08:01:07;4.75;;;2.50;;
15002;SDS011;7597;53.590;10.020;2022-08-21T08:03:34;4.40;;;2.20;;
15002;SDS011;7597;53.590;10.020;2022-08-21T08:06:01;5.12;;;2.75;;
15002;SDS011;7597;53.590;10.020;2022-08-21T08:08:27;4.53;;;2.90;;
15002;SDS011;7597;53.590;10.020;2022-08-21T08:10:55;5.37;;;2.40;;
15002;SDS011;7597;53.590;10.020;2022-08-21T08:13:21;3.33;;;2.47;;
15002;SDS011;7597;53.590;10.020;2022-08-21T08:15:48;3.22;;;2.17;;
15002;SDS011;7597;53.590;10.020;2022-08-21T08:18:16;3.87;;;2.35;;
15002;SDS011;7597;53.590;10.020;2022-08-21T08:20:44;5.50;;;2.92;;
15002;SDS011;7597;53.590;10.020;2022-08-21T08:23:11;3.97;;;2.33;;
15002;SDS011;7597;53.590;10.020;2022-08-21T08:25:37;4.72;;;2.30;;
15002;SDS011;7597;53.590;10.020;2022-08-21T08:28:04;7.43;;;2.72;;
15002;SDS011;7597;53.590;10.020;2022-08-21T08:30:30;4.87;;;2.65;;
15002;SDS011;7597;53.590;10.020;2022-08-21T08:32:57;3.35;;;2.60;;
15002;SDS011;7597;53.590;10.020;2022-08-21T08:35:24;4.78;;;2.78;;
15002;SDS011;7597;53.590;10.020;2022-08-21T08:37:52;4.57;;;2.72;;
15002;SDS011;7597;53.590;10.020;2022-08-21T08:40:29;3.92;;;2.37;;
15002;SDS011;7597;53.590;10.020;2022-08-21T08:42:58;9.50;;;2.80;;
15002;SDS011;7597;53.590;10.020;2022-08-21T08:45:26;5.07;;;2.70;;
15002;SDS011;7597;53.590;10.020;2022-08-21T08:47:53;4.70;;;2.28;;
15002;SDS011;7597;53.590;10.020;2022-08-21T08:50:21;5.60;;;2.72;;
15002;SDS011;7597;53.590;10.020;2022-08-21T08:52:49;5.78;;;2.72;;
15002;SDS011;7597;53.590;10.020;2022-08-21T08:55:17;4.80;;;2.65;;
15002;SDS011;7597;53.590;10.020;2022-08-21T08:57:42;5.45;;;2.58;;
15002;SDS011;7597;53.590;10.020;2022-08-21T09:00:09;5.47;;;2.92;;
15002;SDS011;7597;53.590;10.020;2022-08-21T09:02:36;6.47;;;2.95;;
15002;SDS011;7597;53.590;10.020;2022-08-21T09:05:05;4.78;;;2.95;;
15002;SDS011;7597;53.590;10.020;2022-08-21T09:07:37;4.93;;;2.35;;
15002;SDS011;7597;53.590;10.020;2022-08-21T09:10:05;4.85;;;2.22;;
15002;SDS011;7597;53.590;10.020;2022-08-21T09:12:45;6.45;;;2.60;;
15002;SDS011;7597;53.590;10.020;2022-08-21T09:15:29;5.03;;;3.12;;
15002;SDS011;7597;53.590;10.020;2022-08-21T09:17:59;3.90;;;2.40;;
15002;SDS011;7597;53.590;10.020;2022-08-21T09:20:40;7.40;;;2.60;;
15002;SDS011;7597;53.590;10.020;2022-08-21T09:23:11;7.32;;;2.40;;
15002;SDS011;7597;53.590;10.020;2022-08-21T09:25:53;6.03;;;2.60;;
15002;SDS011;7597;53.590;10.020;2022-08-21T09:28:22;3.90;;;2.40;;
15002;SDS011;7597;53.590;10.020;2022-08-21T09:30:48;6.60;;;2.60;;
15002;SDS011;7597;53.590;10.020;2022-08-21T09:33:15;6.37;;;2.83;;
15002;SDS011;7597;53.590;10.020;2022-08-21T09:38:22;7.25;;;2.65;;
15002;SDS011;7597;53.590;10.020;2022-08-21T09:40:43;8.40;;;3.20;;
15002;SDS011;7597;53.590;10.020;2022-08-21T09:43:18;5.22;;;3.12;;
15002;SDS011;7597;53.590;10.020;2022-08-21T09:45:47;5.90;;;2.80;;
15002;SDS011;7597;53.590;10.020;2022-08-21T09:48:15;4.68;;;2.55;;
15002;SDS011;7597;53.590;10.020;2022-08-21T09:50:42;6.75;;;2.80;;
15002;SDS011;7597;53.590;10.020;2022-08-21T09:55:47;5.50;;;2.80;;
15002;SDS011;7597;53.590;10.020;2022-08-21T09:58:18;6.18;;;3.00;;
15002;SDS011;7597;53.590;10.020;2022-08-21T10:00:45;4.93;;;2.70;;
15002;SDS011;7597;53.590;10.020;2022-08-21T10:03:16;3.95;;;2.50;;
15002;SDS011;7597;53.590;10.020;2022-08-21T10:05:50;6.80;;;2.90;;
15002;SDS011;7597;53.590;10.020;2022-08-21T10:08:15;7.32;;;2.92;;
15002;SDS011;7597;53.590;10.020;2022-08-21T10:10:36;5.93;;;2.30;;
15002;SDS011;7597;53.590;10.020;2022-08-21T10:13:13;6.53;;;3.10;;
15002;SDS011;7597;53.590;10.020;2022-08-21T10:18:24;6.57;;;2.60;;
15002;SDS011;7597;53.590;10.020;2022-08-21T10:21:05;6.35;;;2.65;;
15002;SDS011;7597;53.590;10.020;2022-08-21T10:23:42;6.87;;;3.00;;
15002;SDS011;7597;53.590;10.020;2022-08-21T10:29:07;4.62;;;2.55;;
15002;SDS011;7597;53.590;10.020;2022-08-21T10:31:37;4.62;;;2.50;;
15002;SDS011;7597;53.590;10.020;2022-08-21T10:34:21;6.03;;;2.70;;
15002;SDS011;7597;53.590;10.020;2022-08-21T10:37:10;5.82;;;2.45;;
15002;SDS011;7597;53.590;10.020;2022-08-21T10:39:34;6.45;;;2.53;;
15002;SDS011;7597;53.590;10.020;2022-08-21T10:42:06;5.72;;;2.75;;
15002;SDS011;7597;53.590;10.020;2022-08-21T10:44:36;6.37;;;2.67;;
15002;SDS011;7597;53.590;10.020;2022-08-21T10:47:18;3.87;;;2.58;;
15002;SDS011;7597;53.590;10.020;2022-08-21T10:55:41;5.50;;;2.30;;
15002;SDS011;7597;53.590;10.020;2022-08-21T10:58:10;3.80;;;2.75;;
15002;SDS011;7597;53.590;10.020;2022-08-21T11:00:39;5.20;;;2.50;;
15002;SDS011;7597;53.590;10.020;2022-08-21T11:03:41;3.17;;;2.60;;
15002;SDS011;7597;53.590;10.020;2022-08-21T11:05:52;4.85;;;2.45;;
15002;SDS011;7597;53.590;10.020;2022-08-21T11:11:01;4.62;;;2.60;;
15002;SDS011;7597;53.590;10.020;2022-08-21T11:16:09;4.43;;;2.33;;
15002;SDS011;7597;53.590;10.020;2022-08-21T11:18:36;5.78;;;2.28;;
15002;SDS011;7597;53.590;10.020;2022-08-21T11:21:25;2.62;;;2.05;;
15002;SDS011;7597;53.590;10.020;2022-08-21T11:23:50;6.40;;;2.55;;
15002;SDS011;7597;53.590;10.020;2022-08-21T11:26:19;3.65;;;2.03;;
15002;SDS011;7597;53.590;10.020;2022-08-21T11:31:40;4.72;;;2.28;;
15002;SDS011;7597;53.590;10.020;2022-08-21T11:34:21;3.33;;;2.10;;
15002;SDS011;7597;53.590;10.020;2022-08-21T11:36:53;4.28;;;2.12;;
15002;SDS011;7597;53.590;10.020;2022-08-21T11:39:39;4.07;;;2.17;;
15002;SDS011;7597;53.590;10.020;2022-08-21T11:44:54;4.95;;;2.33;;
15002;SDS011;7597;53.590;10.020;2022-08-21T11:47:23;2.85;;;1.80;;
15002;SDS011;7597;53.590;10.020;2022-08-21T11:52:43;3.78;;;2.20;;
15002;SDS011;7597;53.590;10.020;2022-08-21T11:55:12;4.30;;;2.30;;
15002;SDS011;7597;53.590;10.020;2022-08-21T12:03:24;3.33;;;2.30;;
15002;SDS011;7597;53.590;10.020;2022-08-21T12:05:57;3.28;;;2.22;;
15002;SDS011;7597;53.590;10.020;2022-08-21T12:08:29;2.55;;;1.90;;
15002;SDS011;7597;53.590;10.020;2022-08-21T12:11:01;3.28;;;2.10;;
15002;SDS011;7597;53.590;10.020;2022-08-21T12:13:27;3.60;;;2.00;;
15002;SDS011;7597;53.590;10.020;2022-08-21T12:16:04;3.00;;;1.95;;
15002;SDS011;7597;53.590;10.020;2022-08-21T12:18:22;5.00;;;2.10;;
15002;SDS011;7597;53.590;10.020;2022-08-21T12:20:59;4.37;;;2.37;;
15002;SDS011;7597;53.590;10.020;2022-08-21T12:23:26;3.20;;;2.17;;
15002;SDS011;7597;53.590;10.020;2022-08-21T12:28:26;2.90;;;2.10;;
15002;SDS011;7597;53.590;10.020;2022-08-21T12:30:55;4.20;;;2.40;;
15002;SDS011;7597;53.590;10.020;2022-08-21T12:33:38;3.70;;;2.30;;
15002;SDS011;7597;53.590;10.020;2022-08-21T12:36:07;3.45;;;2.00;;
15002;SDS011;7597;53.590;10.020;2022-08-21T12:38:39;3.42;;;1.87;;
15002;SDS011;7597;53.590;10.020;2022-08-21T12:41:03;4.82;;;1.90;;
15002;SDS011;7597;53.590;10.020;2022-08-21T12:43:30;4.07;;;1.90;;
15002;SDS011;7597;53.590;10.020;2022-08-21T12:45:57;4.55;;;2.62;;
15002;SDS011;7597;53.590;10.020;2022-08-21T12:48:27;3.83;;;2.10;;
15002;SDS011;7597;53.590;10.020;2022-08-21T12:50:52;4.37;;;1.80;;
15002;SDS011;7597;53.590;10.020;2022-08-21T12:53:29;3.05;;;1.65;;
15002;SDS011;7597;53.590;10.020;2022-08-21T12:55:57;3.15;;;1.60;;
15002;SDS011;7597;53.590;10.020;2022-08-21T12:58:24;4.12;;;2.05;;
15002;SDS011;7597;53.590;10.020;2022-08-21T13:00:54;3.75;;;1.92;;
15002;SDS011;7597;53.590;10.020;2022-08-21T13:03:19;3.17;;;2.03;;
15002;SDS011;7597;53.590;10.020;2022-08-21T13:05:46;4.35;;;1.98;;
15002;SDS011;7597;53.590;10.020;2022-08-21T13:08:12;3.80;;;2.05;;
15002;SDS011;7597;53.590;10.020;2022-08-21T13:10:40;4.30;;;1.90;;
15002;SDS011;7597;53.590;10.020;2022-08-21T13:13:09;3.05;;;1.77;;
15002;SDS011;7597;53.590;10.020;2022-08-21T13:15:34;3.33;;;1.60;;
15002;SDS011;7597;53.590;10.020;2022-08-21T13:17:59;2.10;;;1.67;;
15002;SDS011;7597;53.590;10.020;2022-08-21T13:20:28;2.90;;;1.87;;
15002;SDS011;7597;53.590;10.020;2022-08-21T13:22:53;4.28;;;1.65;;
15002;SDS011;7597;53.590;10.020;2022-08-21T13:25:20;2.47;;;1.58;;
15002;SDS011;7597;53.590;10.020;2022-08-21T13:30:41;6.60;;;5.75;;
15002;SDS011;7597;53.590;10.020;2022-08-21T13:33:07;1.83;;;1.62;;
15002;SDS011;7597;53.590;10.020;2022-08-21T13:35:44;2.00;;;1.60;;
15002;SDS011;7597;53.590;10.020;2022-08-21T13:38:03;5.87;;;1.80;;
15002;SDS011;7597;53.590;10.020;2022-08-21T13:40:30;2.45;;;1.67;;
15002;SDS011;7597;53.590;10.020;2022-08-21T13:42:56;2.83;;;1.95;;
15002;SDS011;7597;53.590;10.020;2022-08-21T13:45:24;1.73;;;1.52;;
15002;SDS011;7597;53.590;10.020;2022-08-21T13:47:49;3.75;;;2.17;;
15002;SDS011;7597;53.590;10.020;2022-08-21T13:50:16;4.00;;;1.62;;
15002;SDS011;7597;53.590;10.020;2022-08-21T13:52:49;5.25;;;2.05;;
15002;SDS011;7597;53.590;10.020;2022-08-21T13:55:15;3.30;;;1.80;;
15002;SDS011;7597;53.590;10.020;2022-08-21T13:57:40;3.60;;;2.00;;
15002;SDS011;7597;53.590;10.020;2022-08-21T14:00:11;3.17;;;1.95;;
15002;SDS011;7597;53.590;10.020;2022-08-21T14:02:39;2.50;;;1.95;;
15002;SDS011;7597;53.590;10.020;2022-08-21T14:05:04;4.40;;;1.80;;
15002;SDS011;7597;53.590;10.020;2022-08-21T14:07:35;5.15;;;1.70;;
15002;SDS011;7597;53.590;10.020;2022-08-21T14:10:02;11.88;;;10.68;;
15002;SDS011;7597;53.590;10.020;2022-08-21T14:12:34;9.45;;;7.78;;
15002;SDS011;7597;53.590;10.020;2022-08-21T14:15:01;3.30;;;3.00;;
15002;SDS011;7597;53.590;10.020;2022-08-21T14:17:29;4.68;;;2.60;;
15002;SDS011;7597;53.590;10.020;2022-08-21T14:19:57;3.35;;;1.80;;
15002;SDS011;7597;53.590;10.020;2022-08-21T14:22:28;5.20;;;2.33;;
15002;SDS011;7597;53.590;10.020;2022-08-21T14:25:03;3.45;;;2.15;;
15002;SDS011;7597;53.590;10.020;2022-08-21T14:27:54;2.03;;;1.70;;
15002;SDS011;7597;53.590;10.020;2022-08-21T14:30:30;4.70;;;1.80;;
15002;SDS011;7597;53.590;10.020;2022-08-21T14:32:48;2.40;;;1.92;;
15002;SDS011;7597;53.590;10.020;2022-08-21T14:35:15;3.60;;;2.10;;
15002;SDS011;7597;53.590;10.020;2022-08-21T14:37:41;4.95;;;4.05;;
15002;SDS011;7597;53.590;10.020;2022-08-21T14:40:09;9.82;;;7.55;;
15002;SDS011;7597;53.590;10.020;2022-08-21T14:42:37;2.62;;;2.30;;
15002;SDS011;7597;53.590;10.020;2022-08-21T14:45:13;3.87;;;1.90;;
15002;SDS011;7597;53.590;10.020;2022-08-21T14:47:40;4.32;;;2.40;;
15002;SDS011;7597;53.590;10.020;2022-08-21T14:50:07;3.87;;;2.97;;
15002;SDS011;7597;53.590;10.020;2022-08-21T14:52:34;2.17;;;1.98;;
15002;SDS011;7597;53.590;10.020;2022-08-21T14:55:00;15.07;;;13.55;;
15002;SDS011;7597;53.590;10.020;2022-08-21T14:57:27;13.25;;;11.90;;
15002;SDS011;7597;53.590;10.020;2022-08-21T14:59:57;9.02;;;7.53;;
15002;SDS011;7597;53.590;10.020;2022-08-21T15:02:24;5.15;;;3.00;;
15002;SDS011;7597;53.590;10.020;2022-08-21T15:04:51;5.43;;;3.55;;
15002;SDS011;7597;53.590;10.020;2022-08-21T15:07:17;6.03;;;1.85;;
15002;SDS011;7597;53.590;10.020;2022-08-21T15:09:44;5.47;;;3.37;;
15002;SDS011;7597;53.590;10.020;2022-08-21T15:12:11;3.55;;;1.70;;
15002;SDS011;7597;53.590;10.020;2022-08-21T15:14:38;4.97;;;2.12;;
15002;SDS011;7597;53.590;10.020;2022-08-21T15:17:05;5.20;;;1.98;;
15002;SDS011;7597;53.590;10.020;2022-08-21T15:19:32;2.80;;;1.90;;
15002;SDS011;7597;53.590;10.020;2022-08-21T15:21:59;3.05;;;1.70;;
15002;SDS011;7597;53.590;10.020;2022-08-21T15:24:26;4.68;;;1.92;;
15002;SDS011;7597;53.590;10.020;2022-08-21T15:26:54;2.28;;;2.08;;
15002;SDS011;7597;53.590;10.020;2022-08-21T15:29:20;3.62;;;1.80;;